Decoded Metar for SBNF (NAVEGANTES in BRAZIL) (IATA:NVT) | Meteo·Mobile Aviation Weather
aviador You're here:

SBNF Decoded Metar

NAVEGANTES in BRAZIL
Report Time2019-01-19 03:00:00
UTC Time2019-01-19 06:06:57
Flight Rules Old
WindCalm
Visibility9999 m
Phenomena:Light Rain
Clouds:Few 012 Hf
Scattered 060 Hf
Expected CloudBase > 400 ft AGL from Temp-Dew spread
CeilingNone
Temp24°C (ISA +9)
Dew Point23°C (94% RH)
QNH1012 hPa
Density Alt1,467 ft
Elevation16 ft
Report Wrong Elevation
Raw Report
METAR SBNF 190300Z 00000KT 9999 -RA FEW012 SCT060 24/23 Q1012=

Extra information for SBNF:More info

Metar Taf Metar & Taf Last 4 Metars F.Rules Stats Wind Profile Meteogram Temp Stats Airport Information Weather charts Add Link Nearby VenuesMetar ALERT Operation Metar Decoded Social comments